Terminal Aerodrome Forecast
Issued by NWS

Home | Current Version | Previous Version | Graphics & Text | Print | Product List | Glossary On
Versions: 1 2 3 4 5 6 7 8 9 10 11 12 13 14 15 16 17 18 19 20
294
FTUS43 KICT 221139
TAFRSL
TAF
KRSL 221139Z 2212/2312 20012KT P6SM BKN250
     FM221800 19012KT P6SM FEW250
     FM230100 17007KT P6SM VCTS SCT070CB BKN250
     FM230500 21005KT P6SM BKN250=

USA.gov is the U.S. government's official web portal to all federal, state and local government web resources and services.